Auchterarder, United Kingdom
Current Conditions -  °F | °C
As of 10:20 AM on Wednesday 26 Nov 2014 (Local Time) from EGPH Reporting Station
Light Rain Light Rain  
Wind Chill: 41°   Ceiling: 4900
Heat Index: 41°   Visibility: 4mi
Dew Point: 41°   Wind: 0mph
Humidity: 100%   Direction: NA
Pressure: 30"   Gusts: NA
Location:  56.3°N, 3.71°W
Report Text: EGPH 261020Z 00000KT 6000 -RA SCT042 BKN049 05/05 Q1016
Loading
Personal Weather Stations






























Interactive Weather Map New forecast layout! Learn more

10-Day Weather Forecast

Advertisements
Track Severe Weather on mobile